createdAt,value
2018-07-17T00:00:57.895Z,24.30
2018-07-17T00:03:27.268Z,24.30
2018-07-17T00:05:56.762Z,24.30
2018-07-17T00:08:26.060Z,24.30
2018-07-17T00:10:55.418Z,24.30
2018-07-17T00:13:24.726Z,24.30
2018-07-17T00:15:54.103Z,24.30
2018-07-17T00:18:23.430Z,24.30
2018-07-17T00:20:52.739Z,24.30
2018-07-17T00:28:19.513Z,24.20
2018-07-17T00:33:17.528Z,24.10
2018-07-17T00:35:46.851Z,24.10
2018-07-17T00:38:16.168Z,24.10
2018-07-17T00:40:45.519Z,24.10
2018-07-17T00:43:14.816Z,24.10
2018-07-17T00:45:44.140Z,24.10
2018-07-17T00:48:13.459Z,24.10
2018-07-17T00:50:42.799Z,24.10
2018-07-17T00:55:41.086Z,24.10
2018-07-17T00:58:10.398Z,24.10
2018-07-17T01:03:18.525Z,24.10
2018-07-17T01:05:53.425Z,24.00
2018-07-17T01:08:27.840Z,24.10
2018-07-17T01:11:02.155Z,24.10
2018-07-17T01:13:36.574Z,24.10
2018-07-17T01:16:06.020Z,24.10
2018-07-17T01:18:35.296Z,24.10
2018-07-17T01:21:04.563Z,24.00
2018-07-17T01:23:33.929Z,23.90
2018-07-17T01:26:03.276Z,23.90
2018-07-17T01:28:32.535Z,23.90
2018-07-17T01:31:01.847Z,23.90
2018-07-17T01:33:31.287Z,23.90
2018-07-17T01:36:00.665Z,23.90
2018-07-17T01:38:30.250Z,23.90
2018-07-17T01:40:59.458Z,23.90
2018-07-17T01:43:28.749Z,23.80
2018-07-17T01:45:58.096Z,23.80
2018-07-17T01:48:27.401Z,23.80
2018-07-17T01:50:56.711Z,23.80
2018-07-17T01:53:26.062Z,23.80
2018-07-17T01:55:55.368Z,23.80
2018-07-17T01:58:24.636Z,23.80
2018-07-17T02:00:53.946Z,23.70
2018-07-17T02:03:23.250Z,23.70
2018-07-17T02:05:52.551Z,23.70
2018-07-17T02:08:21.859Z,23.80
2018-07-17T02:10:51.321Z,23.80
2018-07-17T02:15:49.368Z,23.80
2018-07-17T02:18:18.604Z,23.70
2018-07-17T02:20:47.916Z,23.70
2018-07-17T02:25:46.016Z,23.70
2018-07-17T02:30:44.095Z,23.70
2018-07-17T02:33:13.381Z,23.70
2018-07-17T02:35:42.674Z,23.70
2018-07-17T02:38:12.012Z,23.60
2018-07-17T02:40:41.326Z,23.60
2018-07-17T02:43:10.677Z,23.60
2018-07-17T02:45:39.983Z,23.70
2018-07-17T02:48:09.292Z,23.70
2018-07-17T02:50:38.572Z,23.70
2018-07-17T02:53:07.867Z,23.70
2018-07-17T02:55:37.504Z,23.70
2018-07-17T02:58:06.930Z,23.60
2018-07-17T03:00:36.404Z,23.70
2018-07-17T03:05:34.494Z,23.70
2018-07-17T03:10:32.564Z,23.70
2018-07-17T03:13:01.820Z,23.70
2018-07-17T03:15:31.212Z,23.70
2018-07-17T03:18:00.539Z,23.70
2018-07-17T03:20:29.857Z,23.70
2018-07-17T03:22:59.184Z,23.70
2018-07-17T03:27:57.321Z,23.70
2018-07-17T03:30:26.684Z,23.70
2018-07-17T03:32:56.004Z,23.60
2018-07-17T03:35:25.304Z,23.70
2018-07-17T03:37:54.583Z,23.70
2018-07-17T03:40:23.900Z,23.70
2018-07-17T03:42:53.287Z,23.60
2018-07-17T03:45:22.635Z,23.60
2018-07-17T03:47:52.876Z,23.60
2018-07-17T03:50:22.161Z,23.60
2018-07-17T03:52:51.424Z,23.70
2018-07-17T03:55:20.708Z,23.70
2018-07-17T03:57:50.025Z,23.70
2018-07-17T04:00:19.326Z,23.70
2018-07-17T04:02:48.667Z,23.60
2018-07-17T04:05:18.135Z,23.60
2018-07-17T04:07:47.492Z,23.60
2018-07-17T04:10:16.887Z,23.70
2018-07-17T04:12:46.240Z,23.60
2018-07-17T04:15:15.573Z,23.60
2018-07-17T04:17:44.879Z,23.60
2018-07-17T04:20:14.226Z,23.60
2018-07-17T04:22:43.506Z,23.60
2018-07-17T04:27:42.808Z,23.60
2018-07-17T04:30:12.120Z,23.60
2018-07-17T04:32:41.371Z,23.60
2018-07-17T04:35:10.691Z,23.60
2018-07-17T04:37:39.969Z,23.50
2018-07-17T04:40:09.368Z,23.50
2018-07-17T04:42:38.693Z,23.50
2018-07-17T04:45:08.076Z,23.50
2018-07-17T04:47:37.364Z,23.60
2018-07-17T04:50:06.721Z,23.50
2018-07-17T04:52:35.974Z,23.50
2018-07-17T04:55:05.241Z,23.40
2018-07-17T04:57:34.569Z,23.40
2018-07-17T05:00:03.941Z,23.40
2018-07-17T05:02:33.203Z,23.50
2018-07-17T05:05:02.517Z,23.40
2018-07-17T05:07:31.826Z,23.50
2018-07-17T05:12:29.945Z,23.50
2018-07-17T05:14:59.224Z,23.50
2018-07-17T05:17:28.559Z,23.50
2018-07-17T05:19:57.874Z,23.40
2018-07-17T05:22:27.193Z,23.50
2018-07-17T05:24:56.559Z,23.50
2018-07-17T05:27:25.862Z,23.50
2018-07-17T05:29:55.127Z,23.50
2018-07-17T05:34:53.417Z,23.50
2018-07-17T05:37:23.283Z,23.50
2018-07-17T05:39:52.533Z,23.50
2018-07-17T05:47:19.485Z,23.40
2018-07-17T05:49:48.752Z,23.40
2018-07-17T05:52:18.072Z,23.50
2018-07-17T05:54:47.399Z,23.50
2018-07-17T05:59:45.668Z,23.50
2018-07-17T06:02:14.961Z,23.50
2018-07-17T06:04:44.360Z,23.50
2018-07-17T06:07:13.636Z,23.60
2018-07-17T06:09:43.200Z,23.60
2018-07-17T06:12:12.522Z,23.60
2018-07-17T06:14:41.836Z,23.60
2018-07-17T06:17:11.344Z,23.60
2018-07-17T06:19:40.618Z,23.60
2018-07-17T06:22:10.036Z,23.60
2018-07-17T06:24:39.320Z,23.70
2018-07-17T06:27:08.697Z,23.70
2018-07-17T06:29:37.978Z,23.70
2018-07-17T06:32:07.291Z,23.70
2018-07-17T06:34:36.589Z,23.70
2018-07-17T06:37:06.044Z,23.70
2018-07-17T06:39:35.450Z,23.80
2018-07-17T06:42:04.897Z,23.80
2018-07-17T06:44:36.438Z,23.80
2018-07-17T06:47:05.991Z,23.90
2018-07-17T06:49:35.439Z,23.90
2018-07-17T06:52:04.888Z,24.00
2018-07-17T06:57:03.146Z,24.10
2018-07-17T06:59:32.555Z,24.10
2018-07-17T07:02:01.963Z,24.10
2018-07-17T07:04:31.404Z,24.10
2018-07-17T07:07:00.810Z,24.10
2018-07-17T07:09:30.258Z,24.10
2018-07-17T07:11:59.730Z,24.20
2018-07-17T07:14:29.132Z,24.10
2018-07-17T07:16:58.491Z,24.10
2018-07-17T07:19:27.948Z,24.10
2018-07-17T07:21:57.419Z,24.10
2018-07-17T07:24:26.799Z,24.10
2018-07-17T07:29:25.111Z,24.10
2018-07-17T07:36:52.285Z,24.20
2018-07-17T07:39:21.756Z,24.20
2018-07-17T07:41:51.176Z,24.20
2018-07-17T07:44:20.557Z,24.20
2018-07-17T07:46:49.957Z,24.20
2018-07-17T07:49:19.463Z,24.30
2018-07-17T07:51:48.833Z,24.30
2018-07-17T07:54:18.300Z,24.30
2018-07-17T07:59:16.424Z,24.30
2018-07-17T08:01:45.822Z,24.30
2018-07-17T08:04:15.212Z,24.30
2018-07-17T08:06:44.647Z,24.30
2018-07-17T08:09:14.010Z,24.30
2018-07-17T08:14:12.365Z,24.40
2018-07-17T08:16:41.850Z,24.50
2018-07-17T08:19:11.241Z,24.50
2018-07-17T08:21:40.687Z,24.50
2018-07-17T08:24:10.059Z,24.60
2018-07-17T08:26:39.514Z,24.70
2018-07-17T08:34:07.777Z,24.90
2018-07-17T08:36:37.268Z,24.90
2018-07-17T08:39:09.038Z,25.00
2018-07-17T08:41:38.545Z,25.20
2018-07-17T08:44:08.363Z,25.30
2018-07-17T08:46:38.025Z,25.40
2018-07-17T08:49:07.495Z,25.50
2018-07-17T08:51:36.948Z,25.60
2018-07-17T08:54:06.771Z,25.60
2018-07-17T08:56:36.216Z,25.70
2018-07-17T08:59:05.606Z,25.70
2018-07-17T09:01:35.003Z,25.80
2018-07-17T09:04:04.427Z,25.90
2018-07-17T09:06:33.874Z,26.00
2018-07-17T09:09:03.406Z,26.10
2018-07-17T09:11:32.780Z,26.20
2018-07-17T09:14:02.170Z,26.30
2018-07-17T09:16:31.632Z,26.40
2018-07-17T09:19:01.069Z,26.40
2018-07-17T09:23:59.330Z,26.60
2018-07-17T09:26:28.808Z,26.70
2018-07-17T09:28:58.193Z,26.70
2018-07-17T09:31:27.566Z,26.90
2018-07-17T09:36:26.811Z,27.00
2018-07-17T09:38:56.230Z,27.10
2018-07-17T09:41:25.608Z,27.20
2018-07-17T09:43:54.987Z,27.30
2018-07-17T09:48:53.181Z,27.30
2018-07-17T09:51:22.582Z,27.40
2018-07-17T09:53:51.939Z,27.40
2018-07-17T09:56:21.328Z,27.40
2018-07-17T09:58:51.200Z,27.50
2018-07-17T10:01:25.745Z,27.60
2018-07-17T10:03:55.172Z,27.70
2018-07-17T10:06:24.733Z,27.80
2018-07-17T10:08:54.188Z,27.80
2018-07-17T10:11:23.699Z,27.90
2018-07-17T10:13:53.189Z,28.00
2018-07-17T10:16:22.693Z,28.10
2018-07-17T10:18:52.099Z,28.10
2018-07-17T10:21:21.607Z,28.20
2018-07-17T10:23:51.111Z,28.30
2018-07-17T10:26:20.610Z,28.30
2018-07-17T10:28:50.032Z,28.30
2018-07-17T10:31:19.440Z,28.30
2018-07-17T10:33:48.967Z,28.30
2018-07-17T10:38:47.244Z,28.40
2018-07-17T10:41:16.687Z,28.40
2018-07-17T10:43:46.035Z,28.50
2018-07-17T10:46:15.464Z,28.60
2018-07-17T10:48:44.914Z,28.60
2018-07-17T10:51:14.466Z,28.50
2018-07-17T10:53:43.955Z,28.50
2018-07-17T10:56:13.386Z,28.50
2018-07-17T10:58:42.877Z,28.50
2018-07-17T11:01:12.378Z,28.60
2018-07-17T11:03:41.811Z,28.60
2018-07-17T11:06:11.333Z,28.50
2018-07-17T11:08:40.836Z,28.50
2018-07-17T11:11:10.325Z,28.50
2018-07-17T11:13:42.003Z,28.50
2018-07-17T11:16:11.490Z,28.50
2018-07-17T11:18:44.379Z,28.50
2018-07-17T11:21:17.414Z,28.50
2018-07-17T11:23:49.080Z,28.50
2018-07-17T11:26:18.528Z,28.50
2018-07-17T11:28:47.937Z,28.50
2018-07-17T11:31:17.309Z,28.50
2018-07-17T11:33:46.752Z,28.50
2018-07-17T11:36:16.139Z,28.70
2018-07-17T11:38:45.797Z,28.60
2018-07-17T11:41:15.239Z,28.60
2018-07-17T11:43:44.628Z,28.70
2018-07-17T11:46:14.138Z,28.70
2018-07-17T11:48:43.544Z,28.70
2018-07-17T11:51:12.984Z,28.70
2018-07-17T11:53:42.379Z,28.90
2018-07-17T11:56:11.782Z,28.90
2018-07-17T11:58:41.144Z,28.90
2018-07-17T12:01:10.631Z,28.80
2018-07-17T12:03:40.009Z,28.80
2018-07-17T12:06:11.928Z,28.70
2018-07-17T12:08:42.821Z,28.70
2018-07-17T12:11:12.288Z,28.70
2018-07-17T12:13:42.070Z,28.70
2018-07-17T12:16:11.651Z,28.70
2018-07-17T12:18:41.734Z,28.70
2018-07-17T12:21:11.273Z,28.80
2018-07-17T12:23:40.694Z,28.80
2018-07-17T12:28:39.015Z,28.90
2018-07-17T12:31:08.510Z,28.90
2018-07-17T12:33:37.937Z,28.90
2018-07-17T12:36:08.523Z,28.90
2018-07-17T12:38:38.464Z,28.90
2018-07-17T12:41:07.996Z,29.00
2018-07-17T12:43:37.493Z,29.10
2018-07-17T12:46:07.084Z,29.10
2018-07-17T12:48:36.653Z,29.10
2018-07-17T12:51:06.271Z,29.20
2018-07-17T12:53:35.691Z,29.20
2018-07-17T12:56:05.289Z,29.20
2018-07-17T12:58:34.820Z,29.20
2018-07-17T13:01:04.429Z,29.00
2018-07-17T13:03:33.879Z,29.10
2018-07-17T13:06:03.343Z,29.10
2018-07-17T13:08:32.821Z,29.10
2018-07-17T13:13:31.181Z,29.10
2018-07-17T13:16:00.691Z,29.10
2018-07-17T13:18:31.436Z,29.10
2018-07-17T13:21:00.905Z,29.20
2018-07-17T13:23:30.315Z,29.20
2018-07-17T13:25:59.790Z,29.10
2018-07-17T13:28:29.544Z,29.20
2018-07-17T13:30:59.104Z,29.20
2018-07-17T13:33:28.552Z,29.20
2018-07-17T13:35:57.927Z,29.20
2018-07-17T13:38:27.346Z,29.20
2018-07-17T13:40:56.740Z,29.20
2018-07-17T13:43:26.155Z,29.20
2018-07-17T13:45:55.777Z,29.20
2018-07-17T13:48:25.277Z,29.20
2018-07-17T13:50:54.814Z,29.30
2018-07-17T13:53:24.288Z,29.20
2018-07-17T13:55:53.752Z,29.30
2018-07-17T13:58:23.268Z,29.30
2018-07-17T14:00:53.102Z,29.30
2018-07-17T14:03:25.017Z,29.20
2018-07-17T14:05:54.518Z,29.20
2018-07-17T14:08:24.067Z,29.20
2018-07-17T14:10:53.647Z,29.20
2018-07-17T14:13:23.794Z,29.20
2018-07-17T14:15:53.255Z,29.20
2018-07-17T14:18:22.789Z,29.10
2018-07-17T14:20:52.558Z,29.00
2018-07-17T14:23:22.093Z,29.00
2018-07-17T14:25:51.605Z,29.10
2018-07-17T14:28:21.476Z,29.10
2018-07-17T14:30:51.123Z,29.20
2018-07-17T14:33:21.844Z,29.20
2018-07-17T14:35:51.329Z,29.30
2018-07-17T14:38:20.769Z,29.20
2018-07-17T14:40:50.330Z,29.30
2018-07-17T14:45:48.552Z,29.30
2018-07-17T14:48:18.246Z,29.40
2018-07-17T14:50:47.710Z,29.40
2018-07-17T14:53:17.191Z,29.50
2018-07-17T14:55:46.751Z,29.50
2018-07-17T14:58:16.200Z,29.50
2018-07-17T15:00:45.591Z,29.50
2018-07-17T15:03:14.994Z,29.50
2018-07-17T15:05:44.519Z,29.50
2018-07-17T15:08:13.917Z,29.50
2018-07-17T15:10:43.311Z,29.60
2018-07-17T15:13:12.715Z,29.50
2018-07-17T15:15:42.141Z,29.60
2018-07-17T15:18:11.546Z,29.60
2018-07-17T15:20:40.958Z,29.70
2018-07-17T15:25:39.347Z,29.80
2018-07-17T15:28:09.015Z,29.80
2018-07-17T15:30:38.436Z,29.90
2018-07-17T15:33:08.818Z,29.90
2018-07-17T15:35:41.478Z,30.00
2018-07-17T15:38:10.864Z,30.00
2018-07-17T15:40:40.508Z,30.00
2018-07-17T15:43:09.933Z,30.10
2018-07-17T15:45:39.399Z,30.00
2018-07-17T15:50:38.067Z,30.10
2018-07-17T15:53:07.540Z,30.10
2018-07-17T15:55:36.942Z,30.20
2018-07-17T15:58:06.399Z,30.20
2018-07-17T16:00:35.816Z,30.20
2018-07-17T16:03:05.483Z,30.20
2018-07-17T16:05:34.964Z,30.20
2018-07-17T16:08:04.488Z,30.30
2018-07-17T16:10:33.998Z,30.30
2018-07-17T16:13:03.441Z,30.30
2018-07-17T16:15:32.879Z,30.30
2018-07-17T16:18:02.397Z,30.30
2018-07-17T16:20:31.848Z,30.20
2018-07-17T16:25:30.240Z,30.20
2018-07-17T16:30:28.748Z,30.20
2018-07-17T16:32:58.224Z,30.10
2018-07-17T16:35:27.603Z,30.20
2018-07-17T16:37:57.055Z,30.20
2018-07-17T16:40:26.468Z,30.20
2018-07-17T16:42:55.877Z,30.20
2018-07-17T16:45:25.323Z,30.10
2018-07-17T16:47:54.753Z,30.20
2018-07-17T16:50:24.110Z,30.10
2018-07-17T16:52:53.470Z,30.00
2018-07-17T16:57:51.677Z,30.00
2018-07-17T17:00:21.125Z,30.00
2018-07-17T17:02:50.612Z,30.00
2018-07-17T17:05:20.086Z,30.00
2018-07-17T17:07:49.479Z,29.80
2018-07-17T17:10:18.850Z,29.70
2018-07-17T17:12:48.279Z,29.60
2018-07-17T17:17:46.576Z,29.60
2018-07-17T17:20:16.033Z,29.50
2018-07-17T17:22:45.412Z,29.40
2018-07-17T17:25:14.792Z,29.30
2018-07-17T17:27:44.234Z,29.30
2018-07-17T17:30:13.726Z,29.20
2018-07-17T17:32:43.188Z,29.20
2018-07-17T17:35:12.573Z,29.20
2018-07-17T17:37:42.066Z,29.10
2018-07-17T17:40:11.516Z,29.10
2018-07-17T17:42:40.893Z,29.10
2018-07-17T17:47:39.423Z,29.10
2018-07-17T17:50:08.815Z,29.00
2018-07-17T17:52:38.204Z,29.10
2018-07-17T17:57:36.571Z,29.00
2018-07-17T18:00:06.660Z,29.00
2018-07-17T18:02:36.147Z,29.00
2018-07-17T18:05:05.883Z,29.00
2018-07-17T18:07:35.361Z,29.00
2018-07-17T18:10:05.136Z,29.00
2018-07-17T18:12:34.616Z,29.00
2018-07-17T18:15:04.178Z,29.10
2018-07-17T18:17:33.594Z,29.10
2018-07-17T18:20:03.051Z,29.10
2018-07-17T18:22:32.507Z,29.00
2018-07-17T18:25:01.929Z,29.10
2018-07-17T18:27:31.282Z,29.10
2018-07-17T18:30:00.749Z,29.10
2018-07-17T18:32:30.132Z,29.10
2018-07-17T18:34:59.698Z,29.00
2018-07-17T18:37:29.199Z,29.00
2018-07-17T18:39:58.710Z,28.90
2018-07-17T18:42:28.309Z,29.00
2018-07-17T18:44:57.682Z,29.00
2018-07-17T18:47:27.214Z,28.90
2018-07-17T18:50:12.311Z,28.90
2018-07-17T18:52:26.587Z,28.90
2018-07-17T18:54:55.933Z,28.90
2018-07-17T18:57:25.451Z,28.80
2018-07-17T18:59:54.846Z,28.80
2018-07-17T19:02:24.239Z,28.90
2018-07-17T19:04:53.617Z,28.80
2018-07-17T19:07:23.071Z,28.70
2018-07-17T19:09:52.474Z,28.80
2018-07-17T19:12:22.231Z,28.70
2018-07-17T19:14:51.619Z,28.70
2018-07-17T19:17:21.042Z,28.70
2018-07-17T19:19:50.432Z,28.70
2018-07-17T19:22:20.937Z,28.60
2018-07-17T19:24:50.390Z,28.60
2018-07-17T19:29:49.009Z,28.60
2018-07-17T19:32:18.549Z,28.60
2018-07-17T19:34:48.030Z,28.50
2018-07-17T19:37:17.557Z,28.50
2018-07-17T19:39:46.976Z,28.50
2018-07-17T19:42:16.563Z,28.50
2018-07-17T19:44:45.939Z,28.50
2018-07-17T19:47:15.353Z,28.40
2018-07-17T19:49:44.717Z,28.40
2018-07-17T19:54:42.995Z,28.40
2018-07-17T19:57:12.639Z,28.30
2018-07-17T19:59:42.166Z,28.30
2018-07-17T20:02:11.718Z,28.30
2018-07-17T20:04:41.060Z,28.30
2018-07-17T20:07:10.535Z,28.20
2018-07-17T20:12:09.141Z,28.30
2018-07-17T20:19:36.274Z,28.20
2018-07-17T20:22:05.805Z,28.20
2018-07-17T20:24:35.230Z,28.20
2018-07-17T20:29:33.471Z,28.20
2018-07-17T20:32:02.956Z,28.20
2018-07-17T20:34:32.461Z,28.10
2018-07-17T20:37:01.913Z,28.10
2018-07-17T20:39:31.448Z,28.10
2018-07-17T20:42:00.862Z,28.10
2018-07-17T20:44:30.319Z,28.00
2018-07-17T20:46:59.782Z,28.00
2018-07-17T20:49:29.289Z,28.00
2018-07-17T20:51:58.773Z,28.00
2018-07-17T20:54:28.563Z,28.00
2018-07-17T20:56:58.343Z,27.90
2018-07-17T20:59:41.530Z,27.90
2018-07-17T21:02:11.350Z,27.90
2018-07-17T21:04:40.862Z,27.90
2018-07-17T21:07:10.353Z,27.90
2018-07-17T21:09:39.809Z,27.90
2018-07-17T21:12:09.228Z,27.90
2018-07-17T21:14:38.677Z,27.90
2018-07-17T21:17:08.088Z,27.90
2018-07-17T21:19:37.546Z,27.90
2018-07-17T21:22:07.509Z,27.90
2018-07-17T21:24:36.985Z,27.90
2018-07-17T21:27:06.455Z,27.80
2018-07-17T21:29:35.837Z,27.80
2018-07-17T21:32:05.220Z,27.80
2018-07-17T21:34:34.827Z,27.80
2018-07-17T21:37:04.285Z,27.80
2018-07-17T21:39:33.710Z,27.80
2018-07-17T21:42:03.239Z,27.80
2018-07-17T21:44:32.606Z,27.80
2018-07-17T21:47:02.406Z,27.80
2018-07-17T21:52:01.167Z,27.80
2018-07-17T21:54:30.632Z,27.70
2018-07-17T21:57:00.035Z,27.80
2018-07-17T21:59:29.417Z,27.80
2018-07-17T22:01:58.801Z,27.70
2018-07-17T22:04:28.179Z,27.70
2018-07-17T22:06:57.602Z,27.70
2018-07-17T22:09:26.952Z,27.70
2018-07-17T22:11:56.354Z,27.70
2018-07-17T22:14:25.744Z,27.70
2018-07-17T22:16:55.148Z,27.70
2018-07-17T22:19:24.616Z,27.70
2018-07-17T22:21:54.516Z,27.70
2018-07-17T22:24:23.963Z,27.70
2018-07-17T22:26:53.294Z,27.60
2018-07-17T22:29:22.709Z,27.60
2018-07-17T22:31:52.189Z,27.60
2018-07-17T22:34:21.648Z,27.60
2018-07-17T22:36:51.106Z,27.60
2018-07-17T22:39:20.534Z,27.60
2018-07-17T22:41:49.953Z,27.60
2018-07-17T22:44:19.359Z,27.60
2018-07-17T22:46:48.748Z,27.50
2018-07-17T22:49:20.995Z,27.60
2018-07-17T22:51:51.996Z,27.60
2018-07-17T22:54:21.320Z,27.60
2018-07-17T22:56:50.722Z,27.60
2018-07-17T22:59:20.442Z,27.60
2018-07-17T23:01:49.869Z,27.60
2018-07-17T23:04:19.966Z,27.60
2018-07-17T23:06:49.491Z,27.60
2018-07-17T23:09:19.623Z,27.60
2018-07-17T23:11:49.034Z,27.60
2018-07-17T23:14:18.443Z,27.60
2018-07-17T23:16:47.813Z,27.60
2018-07-17T23:19:17.294Z,27.60
2018-07-17T23:21:46.698Z,27.60
2018-07-17T23:24:16.092Z,27.70
2018-07-17T23:26:45.593Z,27.80
2018-07-17T23:29:15.061Z,27.90
2018-07-17T23:31:44.497Z,27.90
2018-07-17T23:34:13.932Z,27.90
2018-07-17T23:36:43.303Z,27.90
2018-07-17T23:39:12.769Z,28.00
2018-07-17T23:41:42.490Z,28.10
2018-07-17T23:46:40.767Z,28.10
2018-07-17T23:49:14.494Z,28.10
2018-07-17T23:51:43.924Z,28.00
2018-07-17T23:54:13.324Z,28.00
2018-07-17T23:56:42.756Z,27.90
2018-07-17T23:59:12.211Z,27.90
